createdAt,value
2022-12-17T00:00:10.926Z,80.97
2022-12-17T00:02:56.519Z,81.23
2022-12-17T00:05:42.590Z,79.30
2022-12-17T00:08:28.608Z,79.37
2022-12-17T00:11:17.648Z,83.53
2022-12-17T00:14:03.407Z,80.87
2022-12-17T00:16:49.163Z,80.97
2022-12-17T00:19:34.681Z,81.03
2022-12-17T00:22:20.508Z,83.80
2022-12-17T00:25:06.421Z,83.20
2022-12-17T00:27:52.145Z,81.80
2022-12-17T00:30:42.838Z,84.67
2022-12-17T00:33:30.475Z,87.33
2022-12-17T00:36:15.881Z,85.17
2022-12-17T00:39:01.519Z,82.83
2022-12-17T00:41:47.450Z,84.60
2022-12-17T00:44:33.549Z,83.60
2022-12-17T00:47:19.736Z,86.07
2022-12-17T00:50:05.237Z,84.17
2022-12-17T00:52:50.943Z,88.27
2022-12-17T00:55:36.627Z,84.60
2022-12-17T00:58:22.809Z,85.50
2022-12-17T01:01:08.650Z,85.90
2022-12-17T01:03:55.513Z,86.20
2022-12-17T01:06:42.518Z,88.60
2022-12-17T01:09:28.150Z,87.57
2022-12-17T01:12:14.156Z,83.73
2022-12-17T01:15:02.763Z,88.57
2022-12-17T01:17:48.707Z,88.70
2022-12-17T01:20:34.964Z,88.83
2022-12-17T01:23:20.684Z,86.67
2022-12-17T01:26:14.252Z,86.07
2022-12-17T01:29:00.850Z,87.30
2022-12-17T01:31:46.673Z,85.90
2022-12-17T01:34:32.638Z,87.43
2022-12-17T01:37:18.540Z,90.17
2022-12-17T01:40:04.516Z,86.00
2022-12-17T01:42:57.945Z,85.97
2022-12-17T01:45:47.554Z,85.23
2022-12-17T01:48:36.952Z,85.60
2022-12-17T01:51:23.649Z,85.97
2022-12-17T01:54:12.603Z,84.73
2022-12-17T01:57:02.122Z,85.57
2022-12-17T02:00:07.351Z,85.50
2022-12-17T02:02:53.268Z,87.03
2022-12-17T02:05:45.079Z,83.80
2022-12-17T02:08:50.846Z,84.67
2022-12-17T02:12:00.821Z,85.37
2022-12-17T02:15:01.708Z,83.87
2022-12-17T02:17:57.327Z,83.43
2022-12-17T02:21:01.460Z,84.17
2022-12-17T02:24:15.716Z,83.90
2022-12-17T02:27:05.498Z,82.67
2022-12-17T02:29:56.873Z,82.77
2022-12-17T02:32:44.113Z,81.50
2022-12-17T02:35:34.794Z,83.73
2022-12-17T02:38:20.566Z,77.97
2022-12-17T02:41:08.834Z,80.47
2022-12-17T02:43:55.430Z,83.63
2022-12-17T02:46:41.425Z,83.00
2022-12-17T02:49:30.548Z,81.00
2022-12-17T02:52:16.427Z,81.87
2022-12-17T02:55:02.353Z,81.67
2022-12-17T02:57:53.508Z,80.87
2022-12-17T03:00:39.746Z,82.83
2022-12-17T03:03:25.535Z,81.67
2022-12-17T03:06:11.414Z,79.70
2022-12-17T03:08:57.455Z,81.73
2022-12-17T03:11:47.592Z,78.67
2022-12-17T03:14:33.751Z,79.93
2022-12-17T03:17:20.644Z,82.67
2022-12-17T03:20:06.592Z,81.00
2022-12-17T03:22:52.471Z,79.57
2022-12-17T03:25:38.487Z,79.07
2022-12-17T03:28:27.100Z,79.63
2022-12-17T03:31:13.002Z,77.63
2022-12-17T03:34:02.070Z,77.47
2022-12-17T03:36:47.595Z,77.87
2022-12-17T03:39:33.521Z,80.57
2022-12-17T03:42:19.818Z,77.73
2022-12-17T03:45:05.840Z,78.53
2022-12-17T03:47:51.529Z,76.77
2022-12-17T03:50:37.225Z,79.27
2022-12-17T03:53:23.884Z,79.17
2022-12-17T03:56:10.208Z,77.37
2022-12-17T03:59:16.058Z,78.63
2022-12-17T04:02:01.955Z,75.20
2022-12-17T04:04:47.782Z,81.20
2022-12-17T04:07:33.516Z,79.10
2022-12-17T04:10:19.590Z,78.77
2022-12-17T04:13:05.628Z,79.40
2022-12-17T04:15:51.499Z,77.50
2022-12-17T04:18:37.526Z,84.30
2022-12-17T04:21:23.758Z,81.43
2022-12-17T04:24:09.993Z,78.07
2022-12-17T04:26:56.606Z,79.23
2022-12-17T04:29:42.911Z,79.90
2022-12-17T04:32:34.871Z,80.00
2022-12-17T04:35:21.362Z,82.30
2022-12-17T04:38:07.688Z,77.73
2022-12-17T04:40:53.338Z,80.47
2022-12-17T04:43:39.145Z,79.73
2022-12-17T04:46:24.887Z,77.80
2022-12-17T04:49:10.901Z,79.43
2022-12-17T04:51:56.758Z,77.70
2022-12-17T04:54:42.762Z,81.93
2022-12-17T04:57:28.328Z,81.77
2022-12-17T05:00:14.086Z,80.57
2022-12-17T05:03:00.198Z,83.50
2022-12-17T05:05:45.806Z,78.80
2022-12-17T05:08:31.838Z,80.37
2022-12-17T05:11:24.064Z,80.70
2022-12-17T05:14:10.100Z,79.43
2022-12-17T05:16:55.732Z,80.23
2022-12-17T05:19:41.304Z,78.13
2022-12-17T05:22:31.900Z,82.93
2022-12-17T05:25:17.583Z,82.20
2022-12-17T05:28:05.939Z,80.93
2022-12-17T05:30:52.099Z,82.47
2022-12-17T05:33:38.358Z,79.80
2022-12-17T05:36:24.737Z,77.83
2022-12-17T05:39:10.979Z,82.37
2022-12-17T05:41:57.227Z,79.97
2022-12-17T05:44:47.261Z,82.13
2022-12-17T05:47:33.270Z,81.67
2022-12-17T05:50:19.118Z,83.07
2022-12-17T05:53:04.686Z,82.57
2022-12-17T05:55:50.316Z,84.90
2022-12-17T05:58:36.220Z,83.47
2022-12-17T06:01:24.687Z,82.50
2022-12-17T06:04:10.843Z,83.37
2022-12-17T06:06:57.069Z,85.33
2022-12-17T06:09:43.464Z,81.83
2022-12-17T06:12:29.235Z,83.87
2022-12-17T06:15:15.109Z,81.87
2022-12-17T06:18:01.117Z,82.47
2022-12-17T06:20:46.735Z,82.60
2022-12-17T06:23:32.405Z,79.37
2022-12-17T06:26:21.713Z,80.10
2022-12-17T06:29:07.646Z,79.40
2022-12-17T06:31:53.512Z,78.17
2022-12-17T06:34:41.769Z,81.90
2022-12-17T06:37:28.409Z,78.93
2022-12-17T06:40:14.190Z,80.20
2022-12-17T06:43:00.011Z,77.10
2022-12-17T06:45:48.514Z,81.10
2022-12-17T06:48:34.694Z,80.93
2022-12-17T06:51:20.678Z,81.67
2022-12-17T06:54:07.868Z,89.23
2022-12-17T06:56:53.419Z,82.20
2022-12-17T06:59:39.783Z,80.30
2022-12-17T07:02:28.449Z,85.23
2022-12-17T07:05:14.990Z,85.20
2022-12-17T07:08:00.575Z,81.57
2022-12-17T07:10:46.521Z,96.87
2022-12-17T07:13:32.146Z,80.23
2022-12-17T07:16:18.177Z,87.37
2022-12-17T07:19:04.013Z,85.77
2022-12-17T07:21:49.987Z,92.63
2022-12-17T07:24:35.956Z,76.40
2022-12-17T07:27:21.612Z,76.50
2022-12-17T07:30:07.692Z,72.30
2022-12-17T07:32:53.305Z,73.40
2022-12-17T07:35:40.045Z,73.50
2022-12-17T07:38:27.757Z,74.60
2022-12-17T07:41:13.702Z,73.13
2022-12-17T07:43:59.598Z,72.67
2022-12-17T07:46:53.217Z,70.67
2022-12-17T07:49:39.414Z,71.83
2022-12-17T07:52:25.359Z,72.60
2022-12-17T07:55:14.277Z,73.10
2022-12-17T07:58:03.803Z,68.87
2022-12-17T08:00:49.755Z,65.87
2022-12-17T08:03:35.740Z,65.87
2022-12-17T08:06:22.122Z,64.20
2022-12-17T08:09:08.865Z,65.93
2022-12-17T08:11:54.652Z,64.30
2022-12-17T08:14:40.705Z,60.80
2022-12-17T08:17:26.476Z,61.10
2022-12-17T08:20:13.102Z,59.17
2022-12-17T08:22:58.862Z,60.13
2022-12-17T08:25:44.499Z,55.40
2022-12-17T08:31:38.053Z,57.27
2022-12-17T08:34:24.072Z,58.57
2022-12-17T08:37:09.861Z,63.87
2022-12-17T08:39:55.743Z,73.90
2022-12-17T08:42:41.496Z,61.60
2022-12-17T08:45:28.205Z,62.97
2022-12-17T08:48:24.684Z,64.80
2022-12-17T08:51:10.783Z,60.37
2022-12-17T08:53:57.493Z,59.93
2022-12-17T08:56:43.953Z,60.13
2022-12-17T08:59:29.864Z,53.43
2022-12-17T09:02:15.905Z,60.07
2022-12-17T09:05:01.528Z,57.40
2022-12-17T09:07:47.453Z,59.30
2022-12-17T09:10:33.040Z,55.47
2022-12-17T09:13:22.663Z,58.33
2022-12-17T09:16:13.752Z,51.77
2022-12-17T09:19:00.557Z,54.93
2022-12-17T09:21:50.019Z,51.57
2022-12-17T09:24:36.105Z,57.93
2022-12-17T09:27:21.640Z,51.57
2022-12-17T09:30:07.734Z,51.10
2022-12-17T09:32:56.630Z,50.40
2022-12-17T09:35:42.157Z,58.37
2022-12-17T09:38:31.546Z,68.97
2022-12-17T09:41:24.524Z,67.33
2022-12-17T09:44:18.269Z,65.23
2022-12-17T09:47:19.933Z,74.23
2022-12-17T09:50:06.175Z,142.17
2022-12-17T09:52:55.733Z,134.73
2022-12-17T09:55:51.881Z,64.53
2022-12-17T09:58:47.223Z,61.27
2022-12-17T10:01:39.063Z,54.70
2022-12-17T10:04:33.480Z,53.23
2022-12-17T10:07:20.941Z,48.43
2022-12-17T10:10:11.061Z,51.10
2022-12-17T10:12:57.828Z,50.07
2022-12-17T10:15:43.895Z,47.47
2022-12-17T10:18:48.490Z,53.50
2022-12-17T10:21:40.096Z,65.63
2022-12-17T10:24:29.565Z,52.17
2022-12-17T10:27:15.658Z,58.03
2022-12-17T10:30:03.512Z,51.67
2022-12-17T10:32:49.514Z,46.90
2022-12-17T10:35:42.787Z,48.87
2022-12-17T10:38:42.646Z,48.43
2022-12-17T10:41:48.619Z,43.50
2022-12-17T10:44:53.866Z,47.10
2022-12-17T10:47:42.386Z,44.77
2022-12-17T10:50:31.508Z,47.63
2022-12-17T10:53:18.255Z,46.63
2022-12-17T10:56:08.324Z,44.47
2022-12-17T10:58:54.527Z,46.70
2022-12-17T11:01:43.457Z,47.13
2022-12-17T11:04:51.985Z,43.80
2022-12-17T11:07:52.891Z,46.07
2022-12-17T11:10:43.129Z,46.27
2022-12-17T11:13:33.973Z,46.43
2022-12-17T11:16:22.657Z,49.13
2022-12-17T11:19:17.208Z,45.17
2022-12-17T11:22:04.009Z,48.63
2022-12-17T11:25:04.555Z,45.33
2022-12-17T11:27:59.804Z,46.17
2022-12-17T11:30:47.169Z,47.63
2022-12-17T11:33:43.490Z,46.80
2022-12-17T11:36:39.080Z,45.17
2022-12-17T11:39:33.133Z,43.57
2022-12-17T11:42:24.470Z,42.53
2022-12-17T11:45:13.330Z,39.27
2022-12-17T11:48:23.256Z,42.00
2022-12-17T11:51:36.389Z,41.50
2022-12-17T11:54:37.217Z,41.93
2022-12-17T11:57:57.005Z,41.67
2022-12-17T12:01:00.851Z,38.30
2022-12-17T12:03:55.462Z,36.67
2022-12-17T12:07:02.803Z,37.63
2022-12-17T12:10:01.525Z,36.73
2022-12-17T12:13:14.650Z,37.27
2022-12-17T12:16:16.735Z,37.20
2022-12-17T12:19:56.447Z,42.27
2022-12-17T12:22:57.299Z,40.87
2022-12-17T12:26:25.588Z,41.00
2022-12-17T12:29:46.106Z,54.50
2022-12-17T12:33:10.157Z,52.13
2022-12-17T12:35:58.103Z,42.33
2022-12-17T12:39:02.129Z,38.13
2022-12-17T12:42:03.485Z,37.07
2022-12-17T12:45:03.834Z,39.77
2022-12-17T12:48:24.587Z,38.13
2022-12-17T12:51:22.375Z,38.70
2022-12-17T12:54:18.991Z,38.33
2022-12-17T12:57:04.695Z,40.53
2022-12-17T12:59:56.118Z,41.97
2022-12-17T13:02:51.674Z,39.77
2022-12-17T13:05:39.908Z,39.70
2022-12-17T13:08:20.655Z,39.57
2022-12-17T13:10:50.262Z,40.23
2022-12-17T13:13:37.159Z,42.17
2022-12-17T13:16:31.986Z,40.17
2022-12-17T13:19:05.005Z,42.00
2022-12-17T13:21:32.964Z,42.73
2022-12-17T13:24:11.774Z,40.90
2022-12-17T13:26:42.012Z,42.37
2022-12-17T13:29:30.095Z,46.70
2022-12-17T13:32:22.109Z,43.63
2022-12-17T13:35:21.041Z,34.70
2022-12-17T13:38:08.272Z,42.33
2022-12-17T13:41:09.852Z,43.03
2022-12-17T13:43:54.411Z,43.33
2022-12-17T13:46:28.193Z,45.10
2022-12-17T13:48:58.143Z,43.13
2022-12-17T13:51:28.375Z,41.53
2022-12-17T13:54:01.012Z,44.43
2022-12-17T13:56:35.310Z,43.33
2022-12-17T13:59:09.123Z,46.07
2022-12-17T14:01:57.461Z,45.03
2022-12-17T14:04:30.036Z,47.10
2022-12-17T14:07:02.131Z,42.93
2022-12-17T14:09:43.345Z,45.90
2022-12-17T14:12:25.749Z,44.23
2022-12-17T14:14:57.294Z,40.27
2022-12-17T14:17:37.795Z,43.87
2022-12-17T14:20:35.905Z,43.57
2022-12-17T14:23:06.281Z,44.83
2022-12-17T14:25:38.578Z,40.83
2022-12-17T14:28:24.950Z,43.17
2022-12-17T14:31:26.283Z,41.17
2022-12-17T14:34:12.357Z,44.57
2022-12-17T14:36:41.929Z,42.77
2022-12-17T14:39:23.125Z,43.37
2022-12-17T14:42:09.012Z,41.17
2022-12-17T14:44:48.341Z,42.80
2022-12-17T14:47:18.388Z,52.87
2022-12-17T14:50:07.728Z,47.47
2022-12-17T14:52:44.786Z,40.53
2022-12-17T14:55:38.037Z,55.37
2022-12-17T14:58:13.347Z,45.73
2022-12-17T15:00:47.203Z,42.07
2022-12-17T15:03:25.578Z,41.47
2022-12-17T15:05:58.260Z,42.17
2022-12-17T15:08:43.173Z,48.77
2022-12-17T15:11:16.406Z,40.17
2022-12-17T15:13:43.951Z,40.23
2022-12-17T15:16:11.741Z,44.90
2022-12-17T15:18:39.570Z,44.53
2022-12-17T15:21:07.223Z,42.93
2022-12-17T15:23:34.751Z,43.00
2022-12-17T15:26:02.111Z,43.00
2022-12-17T15:28:29.422Z,46.40
2022-12-17T15:30:56.716Z,48.30
2022-12-17T15:33:24.081Z,52.50
2022-12-17T15:35:51.382Z,48.73
2022-12-17T15:38:18.620Z,52.33
2022-12-17T15:40:46.083Z,50.93
2022-12-17T15:43:13.816Z,49.73
2022-12-17T15:45:49.461Z,47.80
2022-12-17T15:48:19.576Z,48.67
2022-12-17T15:50:47.569Z,46.53
2022-12-17T15:53:15.029Z,42.83
2022-12-17T15:55:42.420Z,41.47
2022-12-17T15:58:11.746Z,41.33
2022-12-17T16:00:39.268Z,43.77
2022-12-17T16:03:06.734Z,44.73
2022-12-17T16:05:34.082Z,64.70
2022-12-17T16:08:02.779Z,46.60
2022-12-17T16:10:30.987Z,43.70
2022-12-17T16:12:58.227Z,41.03
2022-12-17T16:15:25.931Z,43.67
2022-12-17T16:17:53.365Z,44.93
2022-12-17T16:20:22.044Z,46.13
2022-12-17T16:22:50.251Z,44.97
2022-12-17T16:25:17.528Z,47.27
2022-12-17T16:27:44.788Z,46.07
2022-12-17T16:30:12.806Z,56.50
2022-12-17T16:32:40.170Z,63.23
2022-12-17T16:35:07.913Z,64.20
2022-12-17T16:37:35.160Z,43.80
2022-12-17T16:40:02.518Z,43.23
2022-12-17T16:42:29.855Z,42.80
2022-12-17T16:44:57.246Z,40.80
2022-12-17T16:47:24.681Z,40.83
2022-12-17T16:49:52.036Z,41.63
2022-12-17T16:52:19.276Z,38.80
2022-12-17T16:54:46.561Z,37.87
2022-12-17T16:57:13.824Z,40.60
2022-12-17T16:59:41.356Z,38.57
2022-12-17T17:02:14.019Z,42.77
2022-12-17T17:04:42.011Z,44.30
2022-12-17T17:07:09.451Z,44.17
2022-12-17T17:09:37.844Z,41.13
2022-12-17T17:12:05.468Z,38.37
2022-12-17T17:14:32.685Z,35.50
2022-12-17T17:17:00.008Z,33.83
2022-12-17T17:19:27.413Z,36.60
2022-12-17T17:21:55.142Z,38.87
2022-12-17T17:24:26.940Z,37.57
2022-12-17T17:26:55.444Z,39.23
2022-12-17T17:29:22.830Z,41.13
2022-12-17T17:34:37.775Z,47.13
2022-12-17T17:37:05.076Z,43.27
2022-12-17T17:39:34.462Z,40.97
2022-12-17T17:42:02.533Z,41.37
2022-12-17T17:44:29.898Z,39.13
2022-12-17T17:46:57.232Z,39.73
2022-12-17T17:49:25.351Z,41.00
2022-12-17T17:52:09.455Z,41.80
2022-12-17T17:54:37.444Z,40.57
2022-12-17T17:57:04.885Z,42.20
2022-12-17T17:59:34.063Z,42.07
2022-12-17T18:02:03.671Z,42.00
2022-12-17T18:04:32.098Z,41.67
2022-12-17T18:09:46.934Z,42.77
2022-12-17T18:12:32.999Z,39.50
2022-12-17T18:15:17.235Z,39.20
2022-12-17T18:17:47.912Z,40.17
2022-12-17T18:20:15.417Z,38.03
2022-12-17T18:22:43.065Z,39.17
2022-12-17T18:25:10.723Z,39.03
2022-12-17T18:27:38.973Z,39.90
2022-12-17T18:30:06.734Z,34.57
2022-12-17T18:32:34.032Z,36.97
2022-12-17T18:35:01.354Z,34.53
2022-12-17T18:37:28.599Z,34.00
2022-12-17T18:39:56.055Z,31.70
2022-12-17T18:42:41.944Z,31.70
2022-12-17T18:45:13.174Z,33.53
2022-12-17T18:47:40.631Z,35.00
2022-12-17T18:50:08.983Z,32.93
2022-12-17T18:52:36.259Z,31.63
2022-12-17T18:55:03.856Z,32.13
2022-12-17T18:57:31.202Z,32.30
2022-12-17T18:59:58.524Z,30.50
2022-12-17T19:02:25.908Z,29.23
2022-12-17T19:04:53.341Z,31.50
2022-12-17T19:07:20.585Z,30.60
2022-12-17T19:09:48.019Z,27.43
2022-12-17T19:12:15.809Z,33.23
2022-12-17T19:14:43.673Z,28.27
2022-12-17T19:17:11.009Z,25.87
2022-12-17T19:19:38.383Z,27.63
2022-12-17T19:22:06.658Z,27.53
2022-12-17T19:24:36.811Z,26.70
2022-12-17T19:27:04.131Z,29.40
2022-12-17T19:29:31.402Z,28.23
2022-12-17T19:31:58.804Z,29.23
2022-12-17T19:34:26.171Z,27.00
2022-12-17T19:36:53.538Z,27.63
2022-12-17T19:39:20.974Z,27.13
2022-12-17T19:41:51.659Z,28.27
2022-12-17T19:44:22.983Z,28.77
2022-12-17T19:46:50.401Z,27.40
2022-12-17T19:49:19.102Z,26.53
2022-12-17T19:51:46.661Z,24.20
2022-12-17T19:54:17.974Z,24.07
2022-12-17T19:56:45.907Z,25.00
2022-12-17T19:59:13.987Z,28.40
2022-12-17T20:01:44.646Z,26.43
2022-12-17T20:04:16.380Z,28.43
2022-12-17T20:06:44.268Z,27.67
2022-12-17T20:09:12.002Z,27.23
2022-12-17T20:11:39.685Z,26.73
2022-12-17T20:14:14.783Z,26.43
2022-12-17T20:16:44.924Z,28.97
2022-12-17T20:19:18.619Z,26.40
2022-12-17T20:21:46.927Z,30.47
2022-12-17T20:24:14.850Z,31.57
2022-12-17T20:26:43.725Z,31.53
2022-12-17T20:29:11.593Z,29.33
2022-12-17T20:31:39.548Z,31.67
2022-12-17T20:34:09.269Z,31.90
2022-12-17T20:36:37.168Z,29.90
2022-12-17T20:39:05.350Z,29.33
2022-12-17T20:41:33.618Z,29.70
2022-12-17T20:44:08.351Z,28.00
2022-12-17T20:46:37.337Z,28.63
2022-12-17T20:49:06.176Z,26.67
2022-12-17T20:51:35.023Z,28.07
2022-12-17T20:54:06.973Z,28.67
2022-12-17T20:56:35.739Z,26.63
2022-12-17T20:59:08.042Z,27.43
2022-12-17T21:01:37.159Z,27.23
2022-12-17T21:04:10.155Z,26.37
2022-12-17T21:06:45.987Z,28.20
2022-12-17T21:09:15.941Z,28.37
2022-12-17T21:11:43.225Z,28.67
2022-12-17T21:14:14.182Z,27.73
2022-12-17T21:16:43.082Z,29.50
2022-12-17T21:19:14.269Z,30.57
2022-12-17T21:21:41.758Z,29.63
2022-12-17T21:24:10.506Z,29.33
2022-12-17T21:26:43.092Z,29.57
2022-12-17T21:29:11.464Z,31.17
2022-12-17T21:31:41.397Z,29.67
2022-12-17T21:34:14.752Z,30.87
2022-12-17T21:36:43.064Z,29.20
2022-12-17T21:39:12.117Z,30.60
2022-12-17T21:41:44.265Z,29.90
2022-12-17T21:44:14.915Z,29.17
2022-12-17T21:46:43.580Z,28.03
2022-12-17T21:49:14.236Z,27.53
2022-12-17T21:51:41.868Z,28.90
2022-12-17T21:54:12.317Z,28.90
2022-12-17T21:56:43.104Z,27.17
2022-12-17T21:59:12.041Z,24.93
2022-12-17T22:01:39.540Z,25.57
2022-12-17T22:04:06.942Z,23.93
2022-12-17T22:06:42.929Z,25.57
2022-12-17T22:09:17.431Z,25.43
2022-12-17T22:12:28.356Z,25.93
2022-12-17T22:14:55.650Z,25.00
2022-12-17T22:17:23.479Z,26.03
2022-12-17T22:19:50.904Z,25.20
2022-12-17T22:22:18.431Z,25.90
2022-12-17T22:24:46.063Z,27.87
2022-12-17T22:27:13.410Z,27.70
2022-12-17T22:29:59.448Z,27.87
2022-12-17T22:32:56.434Z,23.60
2022-12-17T22:36:32.608Z,24.03
2022-12-17T22:40:45.154Z,25.00
2022-12-17T22:44:36.892Z,26.97
2022-12-17T22:44:40.583Z,27.57
2022-12-17T22:46:43.234Z,27.37
2022-12-17T22:49:13.471Z,27.40
2022-12-17T22:51:42.357Z,28.53
2022-12-17T22:54:12.352Z,28.00
2022-12-17T22:57:15.146Z,28.60
2022-12-17T22:59:29.255Z,29.40
2022-12-17T23:01:56.558Z,27.77
2022-12-17T23:04:24.201Z,29.73
2022-12-17T23:06:51.566Z,31.53
2022-12-17T23:09:20.357Z,29.20
2022-12-17T23:11:51.958Z,29.37
2022-12-17T23:14:19.275Z,30.50
2022-12-17T23:16:46.918Z,28.30
2022-12-17T23:19:14.188Z,27.97
2022-12-17T23:21:41.857Z,29.73
2022-12-17T23:24:09.853Z,31.70
2022-12-17T23:26:37.750Z,29.10
2022-12-17T23:29:09.069Z,29.93
2022-12-17T23:31:40.579Z,30.40
2022-12-17T23:34:08.862Z,29.20
2022-12-17T23:36:37.773Z,28.80
2022-12-17T23:39:05.979Z,29.50
2022-12-17T23:41:33.768Z,27.50
2022-12-17T23:44:01.451Z,28.80
2022-12-17T23:46:30.378Z,29.77
2022-12-17T23:48:57.919Z,28.63
2022-12-17T23:51:25.749Z,27.97
2022-12-17T23:53:53.323Z,28.40
2022-12-17T23:56:23.486Z,29.63
2022-12-17T23:58:54.197Z,30.20
